sensor_id;sensor_type;location;lat;lon;timestamp;pressure;altitude;pressure_sealevel;temperature;humidity
74268;BME280;62638;51.362;12.472;2023-03-01T00:01:10;101541.19;;;-3.47;95.42
74268;BME280;62638;51.362;12.472;2023-03-01T00:03:36;101530.78;;;-3.51;95.02
74268;BME280;62638;51.362;12.472;2023-03-01T00:06:02;101545.38;;;-3.37;94.39
74268;BME280;62638;51.362;12.472;2023-03-01T00:08:28;101540.88;;;-3.29;93.94
74268;BME280;62638;51.362;12.472;2023-03-01T00:11:09;101543.50;;;-3.29;93.41
74268;BME280;62638;51.362;12.472;2023-03-01T00:13:35;101532.28;;;-3.37;93.45
74268;BME280;62638;51.362;12.472;2023-03-01T00:16:03;101527.88;;;-3.33;93.21
74268;BME280;62638;51.362;12.472;2023-03-01T00:18:28;101531.38;;;-3.36;93.28
74268;BME280;62638;51.362;12.472;2023-03-01T00:20:55;101534.06;;;-3.39;93.19
74268;BME280;62638;51.362;12.472;2023-03-01T00:23:21;101523.66;;;-3.43;93.40
74268;BME280;62638;51.362;12.472;2023-03-01T00:25:46;101526.53;;;-3.58;93.67
74268;BME280;62638;51.362;12.472;2023-03-01T00:28:12;101530.31;;;-3.78;94.12
74268;BME280;62638;51.362;12.472;2023-03-01T00:30:37;101537.59;;;-4.01;94.71
74268;BME280;62638;51.362;12.472;2023-03-01T00:33:03;101524.16;;;-4.36;94.84
74268;BME280;62638;51.362;12.472;2023-03-01T00:35:28;101528.84;;;-4.66;95.73
74268;BME280;62638;51.362;12.472;2023-03-01T00:37:53;101514.16;;;-4.79;97.06
74268;BME280;62638;51.362;12.472;2023-03-01T00:40:33;101506.28;;;-4.71;97.76
74268;BME280;62638;51.362;12.472;2023-03-01T00:42:59;101515.19;;;-4.89;98.11
74268;BME280;62638;51.362;12.472;2023-03-01T00:45:24;101496.84;;;-4.87;99.24
74268;BME280;62638;51.362;12.472;2023-03-01T00:47:50;101490.06;;;-5.00;100.00
74268;BME280;62638;51.362;12.472;2023-03-01T00:50:16;101488.44;;;-5.14;100.00
74268;BME280;62638;51.362;12.472;2023-03-01T00:52:41;101487.75;;;-5.31;100.00
74268;BME280;62638;51.362;12.472;2023-03-01T00:55:07;101479.91;;;-5.32;100.00
74268;BME280;62638;51.362;12.472;2023-03-01T00:57:32;101479.91;;;-5.32;100.00
74268;BME280;62638;51.362;12.472;2023-03-01T00:59:58;101478.25;;;-5.41;100.00
74268;BME280;62638;51.362;12.472;2023-03-01T01:02:23;101485.19;;;-5.38;100.00
74268;BME280;62638;51.362;12.472;2023-03-01T01:04:49;101473.03;;;-5.41;100.00
74268;BME280;62638;51.362;12.472;2023-03-01T01:07:14;101474.03;;;-5.54;100.00
74268;BME280;62638;51.362;12.472;2023-03-01T01:09:40;101485.19;;;-5.38;100.00
74268;BME280;62638;51.362;12.472;2023-03-01T01:12:06;101481.84;;;-5.54;100.00
74268;BME280;62638;51.362;12.472;2023-03-01T01:14:31;101472.47;;;-5.76;100.00
74268;BME280;62638;51.362;12.472;2023-03-01T01:16:57;101471.59;;;-5.75;100.00
74268;BME280;62638;51.362;12.472;2023-03-01T01:19:23;101462.75;;;-5.58;100.00
74268;BME280;62638;51.362;12.472;2023-03-01T01:21:48;101467.03;;;-5.49;100.00
74268;BME280;62638;51.362;12.472;2023-03-01T01:24:14;101461.84;;;-5.55;100.00
74268;BME280;62638;51.362;12.472;2023-03-01T01:26:41;101458.34;;;-5.51;100.00
74268;BME280;62638;51.362;12.472;2023-03-01T01:29:07;101456.75;;;-5.67;100.00
74268;BME280;62638;51.362;12.472;2023-03-01T01:31:34;101455.16;;;-5.83;100.00
74268;BME280;62638;51.362;12.472;2023-03-01T01:34:01;101454.41;;;-5.96;100.00
74268;BME280;62638;51.362;12.472;2023-03-01T01:36:27;101444.94;;;-6.09;100.00
74268;BME280;62638;51.362;12.472;2023-03-01T01:38:53;101448.50;;;-6.25;100.00
74268;BME280;62638;51.362;12.472;2023-03-01T01:41:19;101447.72;;;-6.36;100.00
74268;BME280;62638;51.362;12.472;2023-03-01T01:43:48;101449.47;;;-6.40;100.00
74268;BME280;62638;51.362;12.472;2023-03-01T01:48:50;101445.13;;;-6.39;100.00
74268;BME280;62638;51.362;12.472;2023-03-01T01:51:20;101434.75;;;-6.47;100.00
74268;BME280;62638;51.362;12.472;2023-03-01T01:53:52;101439.88;;;-6.33;100.00
74268;BME280;62638;51.362;12.472;2023-03-01T01:56:18;101425.94;;;-6.26;100.00
74268;BME280;62638;51.362;12.472;2023-03-01T01:58:45;101441.59;;;-6.32;100.00
74268;BME280;62638;51.362;12.472;2023-03-01T02:01:12;101430.41;;;-6.48;100.00
74268;BME280;62638;51.362;12.472;2023-03-01T02:03:39;101425.31;;;-6.65;100.00
74268;BME280;62638;51.362;12.472;2023-03-01T02:06:15;101423.50;;;-6.52;100.00
74268;BME280;62638;51.362;12.472;2023-03-01T02:08:44;101416.44;;;-6.35;100.00
74268;BME280;62638;51.362;12.472;2023-03-01T02:11:12;101424.28;;;-6.39;100.00
74268;BME280;62638;51.362;12.472;2023-03-01T02:13:39;101421.69;;;-6.39;100.00
74268;BME280;62638;51.362;12.472;2023-03-01T02:16:08;101419.06;;;-6.41;100.00
74268;BME280;62638;51.362;12.472;2023-03-01T02:18:34;101420.06;;;-6.62;100.00
74268;BME280;62638;51.362;12.472;2023-03-01T02:23:39;101412.31;;;-6.71;100.00
74268;BME280;62638;51.362;12.472;2023-03-01T02:26:06;101409.72;;;-6.81;100.00
74268;BME280;62638;51.362;12.472;2023-03-01T02:28:35;101402.78;;;-6.81;100.00
74268;BME280;62638;51.362;12.472;2023-03-01T02:31:06;101415.78;;;-6.75;100.00
74268;BME280;62638;51.362;12.472;2023-03-01T02:33:51;101411.44;;;-6.74;100.00
74268;BME280;62638;51.362;12.472;2023-03-01T02:36:20;101416.59;;;-6.61;100.00
74268;BME280;62638;51.362;12.472;2023-03-01T02:38:50;101421.72;;;-6.50;100.00
74268;BME280;62638;51.362;12.472;2023-03-01T02:41:19;101405.31;;;-6.63;100.00
74268;BME280;62638;51.362;12.472;2023-03-01T02:43:45;101422.75;;;-6.75;100.00
74268;BME280;62638;51.362;12.472;2023-03-01T02:46:22;101414.16;;;-6.97;100.00
74268;BME280;62638;51.362;12.472;2023-03-01T02:48:51;101424.53;;;-6.94;100.00
74268;BME280;62638;51.362;12.472;2023-03-01T02:56:31;101412.31;;;-6.75;100.00
74268;BME280;62638;51.362;12.472;2023-03-01T02:58:57;101432.28;;;-6.76;100.00
74268;BME280;62638;51.362;12.472;2023-03-01T03:01:26;101427.16;;;-6.91;100.00
74268;BME280;62638;51.362;12.472;2023-03-01T03:04:05;101431.50;;;-6.93;100.00
74268;BME280;62638;51.362;12.472;2023-03-01T03:06:30;101421.97;;;-6.96;100.00
74268;BME280;62638;51.362;12.472;2023-03-01T03:08:55;101419.31;;;-6.88;100.00
74268;BME280;62638;51.362;12.472;2023-03-01T03:11:21;101407.16;;;-6.84;100.00
74268;BME280;62638;51.362;12.472;2023-03-01T03:13:46;101414.97;;;-6.84;100.00
74268;BME280;62638;51.362;12.472;2023-03-01T03:16:13;101406.22;;;-6.73;100.00
74268;BME280;62638;51.362;12.472;2023-03-01T03:18:38;101404.47;;;-6.66;100.00
74268;BME280;62638;51.362;12.472;2023-03-01T03:21:08;101397.53;;;-6.70;100.00
74268;BME280;62638;51.362;12.472;2023-03-01T03:23:35;101401.75;;;-6.48;100.00
74268;BME280;62638;51.362;12.472;2023-03-01T03:26:01;101404.41;;;-6.59;100.00
74268;BME280;62638;51.362;12.472;2023-03-01T03:28:27;101401.81;;;-6.57;100.00
74268;BME280;62638;51.362;12.472;2023-03-01T03:30:52;101400.06;;;-6.58;100.00
74268;BME280;62638;51.362;12.472;2023-03-01T03:33:17;101400.16;;;-6.76;100.00
74268;BME280;62638;51.362;12.472;2023-03-01T03:35:45;101400.28;;;-6.96;100.00
74268;BME280;62638;51.362;12.472;2023-03-01T03:38:12;101387.19;;;-6.90;100.00
74268;BME280;62638;51.362;12.472;2023-03-01T03:40:46;101387.25;;;-7.02;100.00
74268;BME280;62638;51.362;12.472;2023-03-01T03:43:14;101370.78;;;-7.03;100.00
74268;BME280;62638;51.362;12.472;2023-03-01T03:45:40;101387.19;;;-6.84;100.00
74268;BME280;62638;51.362;12.472;2023-03-01T03:48:08;101380.25;;;-6.88;100.00
74268;BME280;62638;51.362;12.472;2023-03-01T03:50:35;101376.84;;;-7.02;100.00
74268;BME280;62638;51.362;12.472;2023-03-01T03:53:02;101380.41;;;-7.18;100.00
74268;BME280;62638;51.362;12.472;2023-03-01T03:55:28;101381.25;;;-7.18;100.00
74268;BME280;62638;51.362;12.472;2023-03-01T03:57:57;101376.91;;;-7.08;100.00
74268;BME280;62638;51.362;12.472;2023-03-01T04:00:22;101372.56;;;-7.08;100.00
74268;BME280;62638;51.362;12.472;2023-03-01T04:02:49;101377.78;;;-7.08;100.00
74268;BME280;62638;51.362;12.472;2023-03-01T04:05:17;101383.78;;;-7.03;100.00
74268;BME280;62638;51.362;12.472;2023-03-01T04:07:43;101369.09;;;-7.16;100.00
74268;BME280;62638;51.362;12.472;2023-03-01T04:10:11;101387.38;;;-7.26;100.00
74268;BME280;62638;51.362;12.472;2023-03-01T04:12:37;101383.91;;;-7.38;100.00
74268;BME280;62638;51.362;12.472;2023-03-01T04:15:03;101390.88;;;-7.44;100.00
74268;BME280;62638;51.362;12.472;2023-03-01T04:17:44;101376.19;;;-7.51;100.00
74268;BME280;62638;51.362;12.472;2023-03-01T04:20:14;101383.94;;;-7.35;100.00
74268;BME280;62638;51.362;12.472;2023-03-01T04:22:42;101376.94;;;-7.17;100.00
74268;BME280;62638;51.362;12.472;2023-03-01T04:25:08;101366.53;;;-7.17;100.00
74268;BME280;62638;51.362;12.472;2023-03-01T04:27:35;101372.53;;;-7.03;100.00
74268;BME280;62638;51.362;12.472;2023-03-01T04:30:01;101365.56;;;-7.00;100.00
74268;BME280;62638;51.362;12.472;2023-03-01T04:32:26;101363.00;;;-7.09;100.00
74268;BME280;62638;51.362;12.472;2023-03-01T04:34:52;101361.31;;;-7.17;100.00
74268;BME280;62638;51.362;12.472;2023-03-01T04:37:17;101353.53;;;-7.23;100.00
74268;BME280;62638;51.362;12.472;2023-03-01T04:39:42;101376.09;;;-7.27;100.00
74268;BME280;62638;51.362;12.472;2023-03-01T04:42:13;101372.56;;;-7.09;100.00
74268;BME280;62638;51.362;12.472;2023-03-01T04:44:38;101360.31;;;-6.88;100.00
74268;BME280;62638;51.362;12.472;2023-03-01T04:47:03;101382.00;;;-6.90;100.00
74268;BME280;62638;51.362;12.472;2023-03-01T04:49:28;101369.94;;;-7.03;100.00
74268;BME280;62638;51.362;12.472;2023-03-01T04:51:54;101375.72;;;-6.56;100.00
74268;BME280;62638;51.362;12.472;2023-03-01T04:54:19;101373.78;;;-6.23;100.00
74268;BME280;62638;51.362;12.472;2023-03-01T04:56:44;101384.00;;;-5.98;100.00
74268;BME280;62638;51.362;12.472;2023-03-01T04:59:09;101375.09;;;-5.77;100.00
74268;BME280;62638;51.362;12.472;2023-03-01T05:01:38;101378.56;;;-5.75;100.00
74268;BME280;62638;51.362;12.472;2023-03-01T05:04:04;101364.56;;;-5.66;100.00
74268;BME280;62638;51.362;12.472;2023-03-01T05:06:30;101380.97;;;-5.54;100.00
74268;BME280;62638;51.362;12.472;2023-03-01T05:08:56;101368.63;;;-5.39;100.00
74268;BME280;62638;51.362;12.472;2023-03-01T05:11:21;101370.38;;;-5.41;100.00
74268;BME280;62638;51.362;12.472;2023-03-01T05:13:47;101373.81;;;-5.36;100.00
74268;BME280;62638;51.362;12.472;2023-03-01T05:16:12;101361.69;;;-5.42;100.00
74268;BME280;62638;51.362;12.472;2023-03-01T05:18:38;101380.69;;;-5.29;100.00
74268;BME280;62638;51.362;12.472;2023-03-01T05:21:10;101381.50;;;-5.24;100.00
74268;BME280;62638;51.362;12.472;2023-03-01T05:23:36;101374.63;;;-5.31;100.00
74268;BME280;62638;51.362;12.472;2023-03-01T05:26:03;101371.19;;;-5.36;100.00
74268;BME280;62638;51.362;12.472;2023-03-01T05:28:30;101372.06;;;-5.37;100.00
74268;BME280;62638;51.362;12.472;2023-03-01T05:30:56;101380.00;;;-5.45;100.00
74268;BME280;62638;51.362;12.472;2023-03-01T05:33:22;101367.88;;;-5.49;100.00
74268;BME280;62638;51.362;12.472;2023-03-01T05:35:49;101372.25;;;-5.56;100.00
74268;BME280;62638;51.362;12.472;2023-03-01T05:38:16;101367.81;;;-5.47;100.00
74268;BME280;62638;51.362;12.472;2023-03-01T05:40:42;101370.38;;;-5.41;100.00
74268;BME280;62638;51.362;12.472;2023-03-01T05:43:09;101360.75;;;-5.38;100.00
74268;BME280;62638;51.362;12.472;2023-03-01T05:45:36;101366.03;;;-5.42;100.00
74268;BME280;62638;51.362;12.472;2023-03-01T05:48:02;101362.59;;;-5.46;100.00
74268;BME280;62638;51.362;12.472;2023-03-01T05:50:29;101364.25;;;-5.39;100.00
74268;BME280;62638;51.362;12.472;2023-03-01T05:53:03;101368.78;;;-5.55;100.00
74268;BME280;62638;51.362;12.472;2023-03-01T05:55:31;101377.56;;;-5.62;100.00
74268;BME280;62638;51.362;12.472;2023-03-01T05:58:01;101383.63;;;-5.60;100.00
74268;BME280;62638;51.362;12.472;2023-03-01T06:00:28;101381.00;;;-5.57;100.00
74268;BME280;62638;51.362;12.472;2023-03-01T06:02:54;101380.00;;;-5.46;100.00
74268;BME280;62638;51.362;12.472;2023-03-01T06:05:19;101376.47;;;-5.39;100.00
74268;BME280;62638;51.362;12.472;2023-03-01T06:07:45;101382.56;;;-5.40;100.00
74268;BME280;62638;51.362;12.472;2023-03-01T06:10:11;101367.72;;;-5.37;100.00
74268;BME280;62638;51.362;12.472;2023-03-01T06:12:38;101383.09;;;-5.10;100.00
74268;BME280;62638;51.362;12.472;2023-03-01T06:15:05;101369.66;;;-4.81;100.00
74268;BME280;62638;51.362;12.472;2023-03-01T06:17:34;101386.94;;;-4.72;100.00
74268;BME280;62638;51.362;12.472;2023-03-01T06:20:04;101378.22;;;-4.71;100.00
74268;BME280;62638;51.362;12.472;2023-03-01T06:22:30;101392.88;;;-4.61;99.99
74268;BME280;62638;51.362;12.472;2023-03-01T06:24:55;101381.56;;;-4.62;100.00
74268;BME280;62638;51.362;12.472;2023-03-01T06:27:20;101392.84;;;-4.58;99.96
74268;BME280;62638;51.362;12.472;2023-03-01T06:29:46;101399.78;;;-4.54;99.76
74268;BME280;62638;51.362;12.472;2023-03-01T06:32:11;101397.19;;;-4.57;99.64
74268;BME280;62638;51.362;12.472;2023-03-01T06:34:36;101383.41;;;-4.67;99.76
74268;BME280;62638;51.362;12.472;2023-03-01T06:37:02;101392.94;;;-4.64;99.32
74268;BME280;62638;51.362;12.472;2023-03-01T06:39:30;101385.88;;;-4.57;99.78
74268;BME280;62638;51.362;12.472;2023-03-01T06:41:55;101382.06;;;-4.35;100.00
74268;BME280;62638;51.362;12.472;2023-03-01T06:44:21;101379.97;;;-4.12;99.63
74268;BME280;62638;51.362;12.472;2023-03-01T06:46:46;101384.84;;;-3.92;98.66
74268;BME280;62638;51.362;12.472;2023-03-01T06:49:12;101390.84;;;-3.84;98.21
74268;BME280;62638;51.362;12.472;2023-03-01T06:51:37;101386.22;;;-3.70;97.97
74268;BME280;62638;51.362;12.472;2023-03-01T06:54:04;101386.88;;;-3.57;97.32
74268;BME280;62638;51.362;12.472;2023-03-01T06:56:31;101393.25;;;-3.25;96.70
74268;BME280;62638;51.362;12.472;2023-03-01T06:58:56;101400.72;;;-3.05;96.19
74268;BME280;62638;51.362;12.472;2023-03-01T07:01:21;101395.13;;;-2.88;95.00
74268;BME280;62638;51.362;12.472;2023-03-01T07:03:46;101404.28;;;-2.66;94.90
74268;BME280;62638;51.362;12.472;2023-03-01T07:06:12;101401.28;;;-2.49;94.30
74268;BME280;62638;51.362;12.472;2023-03-01T07:08:37;101399.09;;;-2.29;93.66
74268;BME280;62638;51.362;12.472;2023-03-01T07:11:02;101402.31;;;-2.16;93.19
74268;BME280;62638;51.362;12.472;2023-03-01T07:13:29;101392.19;;;-1.96;92.47
74268;BME280;62638;51.362;12.472;2023-03-01T07:15:54;101405.78;;;-1.80;91.77
74268;BME280;62638;51.362;12.472;2023-03-01T07:18:19;101389.00;;;-1.73;91.56
74268;BME280;62638;51.362;12.472;2023-03-01T07:20:44;101390.84;;;-1.43;91.51
74268;BME280;62638;51.362;12.472;2023-03-01T07:23:10;101393.69;;;-1.20;91.26
74268;BME280;62638;51.362;12.472;2023-03-01T07:25:35;101391.69;;;-1.12;89.26
74268;BME280;62638;51.362;12.472;2023-03-01T07:28:00;101388.06;;;-1.06;89.64
74268;BME280;62638;51.362;12.472;2023-03-01T07:30:26;101382.16;;;-0.83;88.90
74268;BME280;62638;51.362;12.472;2023-03-01T07:32:54;101385.66;;;-0.83;87.04
74268;BME280;62638;51.362;12.472;2023-03-01T07:35:20;101388.28;;;-0.83;87.18
74268;BME280;62638;51.362;12.472;2023-03-01T07:37:45;101382.91;;;-0.51;88.87
74268;BME280;62638;51.362;12.472;2023-03-01T07:40:11;101393.88;;;-0.36;86.49
74268;BME280;62638;51.362;12.472;2023-03-01T07:42:37;101381.53;;;-0.34;85.77
74268;BME280;62638;51.362;12.472;2023-03-01T07:45:03;101381.09;;;0.07;86.89
74268;BME280;62638;51.362;12.472;2023-03-01T07:47:29;101393.50;;;0.04;85.25
74268;BME280;62638;51.362;12.472;2023-03-01T07:49:54;101391.66;;;0.06;86.15
74268;BME280;62638;51.362;12.472;2023-03-01T07:52:19;101395.63;;;0.19;84.30
74268;BME280;62638;51.362;12.472;2023-03-01T07:54:44;101395.28;;;0.29;84.39
74268;BME280;62638;51.362;12.472;2023-03-01T07:57:10;101393.69;;;0.50;84.65
74268;BME280;62638;51.362;12.472;2023-03-01T07:59:35;101389.41;;;0.72;85.29
74268;BME280;62638;51.362;12.472;2023-03-01T08:02:00;101397.16;;;0.77;82.70
74268;BME280;62638;51.362;12.472;2023-03-01T08:04:26;101393.66;;;1.00;82.67
74268;BME280;62638;51.362;12.472;2023-03-01T08:06:52;101387.97;;;1.12;80.92
74268;BME280;62638;51.362;12.472;2023-03-01T08:09:17;101398.16;;;1.21;81.44
74268;BME280;62638;51.362;12.472;2023-03-01T08:11:42;101400.06;;;1.41;81.26
74268;BME280;62638;51.362;12.472;2023-03-01T08:14:08;101389.03;;;1.53;78.29
74268;BME280;62638;51.362;12.472;2023-03-01T08:16:33;101389.81;;;1.33;79.55
74268;BME280;62638;51.362;12.472;2023-03-01T08:19:04;101392.91;;;1.66;80.02
74268;BME280;62638;51.362;12.472;2023-03-01T08:21:29;101393.34;;;1.99;77.88
74268;BME280;62638;51.362;12.472;2023-03-01T08:23:54;101392.38;;;2.01;77.04
74268;BME280;62638;51.362;12.472;2023-03-01T08:26:20;101380.81;;;2.25;78.08
74268;BME280;62638;51.362;12.472;2023-03-01T08:28:48;101390.72;;;1.99;76.62
74268;BME280;62638;51.362;12.472;2023-03-01T08:31:22;101382.53;;;2.26;76.61
74268;BME280;62638;51.362;12.472;2023-03-01T08:33:49;101382.16;;;2.36;74.75
74268;BME280;62638;51.362;12.472;2023-03-01T08:36:19;101368.69;;;2.62;74.26
74268;BME280;62638;51.362;12.472;2023-03-01T08:38:46;101372.00;;;2.25;75.07
74268;BME280;62638;51.362;12.472;2023-03-01T08:41:11;101375.16;;;2.13;75.89
74268;BME280;62638;51.362;12.472;2023-03-01T08:43:36;101363.75;;;2.12;73.96
74268;BME280;62638;51.362;12.472;2023-03-01T08:46:01;101355.94;;;2.71;75.48
74268;BME280;62638;51.362;12.472;2023-03-01T08:48:28;101363.06;;;2.69;72.54
74268;BME280;62638;51.362;12.472;2023-03-01T08:50:54;101353.78;;;2.59;74.02
74268;BME280;62638;51.362;12.472;2023-03-01T08:53:19;101370.25;;;3.25;73.18
74268;BME280;62638;51.362;12.472;2023-03-01T08:55:44;101370.34;;;3.24;71.14
74268;BME280;62638;51.362;12.472;2023-03-01T08:58:10;101362.97;;;3.49;70.89
74268;BME280;62638;51.362;12.472;2023-03-01T09:00:35;101374.34;;;3.32;71.98
74268;BME280;62638;51.362;12.472;2023-03-01T09:03:01;101362.81;;;3.33;69.67
74268;BME280;62638;51.362;12.472;2023-03-01T09:05:26;101357.78;;;3.83;69.00
74268;BME280;62638;51.362;12.472;2023-03-01T09:07:52;101362.78;;;3.89;66.47
74268;BME280;62638;51.362;12.472;2023-03-01T09:10:17;101362.22;;;3.64;68.67
74268;BME280;62638;51.362;12.472;2023-03-01T09:12:43;101368.66;;;3.96;69.22
74268;BME280;62638;51.362;12.472;2023-03-01T09:15:08;101369.09;;;4.40;68.80
74268;BME280;62638;51.362;12.472;2023-03-01T09:17:34;101358.09;;;3.40;67.77
74268;BME280;62638;51.362;12.472;2023-03-01T09:19:59;101353.56;;;3.79;68.54
74268;BME280;62638;51.362;12.472;2023-03-01T09:22:25;101359.41;;;4.39;68.03
74268;BME280;62638;51.362;12.472;2023-03-01T09:24:50;101352.78;;;4.30;67.03
74268;BME280;62638;51.362;12.472;2023-03-01T09:27:15;101336.94;;;4.63;65.14
74268;BME280;62638;51.362;12.472;2023-03-01T09:29:44;101355.31;;;3.97;65.84
74268;BME280;62638;51.362;12.472;2023-03-01T09:32:09;101343.75;;;3.62;66.70
74268;BME280;62638;51.362;12.472;2023-03-01T09:34:34;101350.91;;;3.79;67.42
74268;BME280;62638;51.362;12.472;2023-03-01T09:37:20;101352.44;;;3.29;67.67
74268;BME280;62638;51.362;12.472;2023-03-01T09:39:45;101336.44;;;3.32;68.16
74268;BME280;62638;51.362;12.472;2023-03-01T09:42:11;101338.91;;;3.53;68.66
74268;BME280;62638;51.362;12.472;2023-03-01T09:44:48;101336.06;;;3.58;67.00
74268;BME280;62638;51.362;12.472;2023-03-01T09:47:20;101339.09;;;3.86;66.33
74268;BME280;62638;51.362;12.472;2023-03-01T09:50:06;101339.63;;;3.57;67.47
74268;BME280;62638;51.362;12.472;2023-03-01T09:52:40;101339.34;;;3.44;67.74
74268;BME280;62638;51.362;12.472;2023-03-01T09:55:15;101338.06;;;3.89;67.46
74268;BME280;62638;51.362;12.472;2023-03-01T09:57:54;101337.75;;;4.48;65.15
74268;BME280;62638;51.362;12.472;2023-03-01T10:03:16;101338.50;;;4.67;65.42
74268;BME280;62638;51.362;12.472;2023-03-01T10:08:34;101332.22;;;4.85;62.16
74268;BME280;62638;51.362;12.472;2023-03-01T10:11:02;101334.47;;;5.26;62.46
74268;BME280;62638;51.362;12.472;2023-03-01T10:13:48;101334.91;;;5.01;61.08
74268;BME280;62638;51.362;12.472;2023-03-01T10:16:28;101333.72;;;4.74;60.44
74268;BME280;62638;51.362;12.472;2023-03-01T10:19:00;101329.84;;;5.29;60.17
74268;BME280;62638;51.362;12.472;2023-03-01T10:21:27;101328.41;;;5.86;59.77
74268;BME280;62638;51.362;12.472;2023-03-01T10:23:54;101325.38;;;5.77;57.30
74268;BME280;62638;51.362;12.472;2023-03-01T10:26:29;101328.25;;;5.10;60.12
74268;BME280;62638;51.362;12.472;2023-03-01T10:29:05;101328.13;;;5.60;58.59
74268;BME280;62638;51.362;12.472;2023-03-01T10:34:17;101318.00;;;5.98;56.14
74268;BME280;62638;51.362;12.472;2023-03-01T10:36:45;101328.25;;;6.49;55.45
74268;BME280;62638;51.362;12.472;2023-03-01T10:39:20;101330.53;;;5.48;54.31
74268;BME280;62638;51.362;12.472;2023-03-01T10:41:59;101327.91;;;6.25;55.05
74268;BME280;62638;51.362;12.472;2023-03-01T10:44:47;101331.66;;;6.37;54.83
74268;BME280;62638;51.362;12.472;2023-03-01T10:47:30;101320.22;;;6.35;55.78
74268;BME280;62638;51.362;12.472;2023-03-01T10:50:05;101319.63;;;6.30;55.46
74268;BME280;62638;51.362;12.472;2023-03-01T10:52:41;101312.16;;;6.36;54.92
74268;BME280;62638;51.362;12.472;2023-03-01T10:57:40;101319.03;;;5.64;58.35
74268;BME280;62638;51.362;12.472;2023-03-01T11:00:19;101325.22;;;5.64;58.60
74268;BME280;62638;51.362;12.472;2023-03-01T11:05:24;101309.13;;;4.87;59.57
74268;BME280;62638;51.362;12.472;2023-03-01T11:07:56;101313.47;;;4.55;60.47
74268;BME280;62638;51.362;12.472;2023-03-01T11:10:33;101305.41;;;4.74;62.76
74268;BME280;62638;51.362;12.472;2023-03-01T11:13:16;101308.41;;;4.51;62.37
74268;BME280;62638;51.362;12.472;2023-03-01T11:15:43;101308.81;;;4.76;61.36
74268;BME280;62638;51.362;12.472;2023-03-01T11:18:22;101309.94;;;5.36;60.54
74268;BME280;62638;51.362;12.472;2023-03-01T11:20:48;101302.56;;;5.10;60.94
74268;BME280;62638;51.362;12.472;2023-03-01T11:23:16;101295.53;;;5.09;60.79
74268;BME280;62638;51.362;12.472;2023-03-01T11:25:46;101300.69;;;5.28;58.99
74268;BME280;62638;51.362;12.472;2023-03-01T11:28:17;101295.53;;;5.72;58.66
74268;BME280;62638;51.362;12.472;2023-03-01T11:30:56;101297.66;;;6.12;58.54
74268;BME280;62638;51.362;12.472;2023-03-01T11:36:02;101301.97;;;5.68;57.75
74268;BME280;62638;51.362;12.472;2023-03-01T11:38:32;101290.97;;;5.74;57.59
74268;BME280;62638;51.362;12.472;2023-03-01T11:41:20;101291.16;;;6.32;56.27
74268;BME280;62638;51.362;12.472;2023-03-01T11:46:45;101275.59;;;5.65;57.50
74268;BME280;62638;51.362;12.472;2023-03-01T11:49:47;101277.63;;;6.21;56.19
74268;BME280;62638;51.362;12.472;2023-03-01T11:52:46;101267.50;;;5.98;56.85
74268;BME280;62638;51.362;12.472;2023-03-01T11:55:13;101254.38;;;5.95;55.79
74268;BME280;62638;51.362;12.472;2023-03-01T12:03:33;101261.53;;;6.66;53.45
74268;BME280;62638;51.362;12.472;2023-03-01T12:06:23;101258.31;;;6.90;52.56
74268;BME280;62638;51.362;12.472;2023-03-01T12:08:55;101263.53;;;6.63;53.52
74268;BME280;62638;51.362;12.472;2023-03-01T12:11:39;101259.84;;;6.07;52.52
74268;BME280;62638;51.362;12.472;2023-03-01T12:16:57;101246.13;;;5.99;52.49
74268;BME280;62638;51.362;12.472;2023-03-01T12:36:10;101233.78;;;6.56;53.14
74268;BME280;62638;51.362;12.472;2023-03-01T12:38:49;101216.28;;;7.36;51.68
74268;BME280;62638;51.362;12.472;2023-03-01T12:41:31;101218.53;;;7.68;52.01
74268;BME280;62638;51.362;12.472;2023-03-01T12:49:35;101207.53;;;6.93;51.80
74268;BME280;62638;51.362;12.472;2023-03-01T12:52:17;101202.91;;;7.50;53.88
74268;BME280;62638;51.362;12.472;2023-03-01T12:54:45;101198.31;;;7.52;50.36
74268;BME280;62638;51.362;12.472;2023-03-01T12:57:33;101192.47;;;7.06;50.48
74268;BME280;62638;51.362;12.472;2023-03-01T13:03:10;101186.16;;;6.80;49.56
74268;BME280;62638;51.362;12.472;2023-03-01T13:08:41;101178.38;;;7.04;51.21
74268;BME280;62638;51.362;12.472;2023-03-01T13:11:18;101185.50;;;7.03;50.44
74268;BME280;62638;51.362;12.472;2023-03-01T13:13:44;101179.41;;;6.74;50.85
74268;BME280;62638;51.362;12.472;2023-03-01T13:16:38;101182.38;;;6.56;50.48
74268;BME280;62638;51.362;12.472;2023-03-01T13:19:19;101174.34;;;6.98;51.61
74268;BME280;62638;51.362;12.472;2023-03-01T13:21:46;101186.44;;;6.90;49.67
74268;BME280;62638;51.362;12.472;2023-03-01T13:24:38;101182.63;;;6.94;50.74
74268;BME280;62638;51.362;12.472;2023-03-01T13:29:52;101177.09;;;6.97;47.68
74268;BME280;62638;51.362;12.472;2023-03-01T13:32:24;101190.22;;;7.26;47.78
74268;BME280;62638;51.362;12.472;2023-03-01T13:34:52;101178.63;;;7.27;48.43
74268;BME280;62638;51.362;12.472;2023-03-01T13:37:36;101175.09;;;7.27;48.34
74268;BME280;62638;51.362;12.472;2023-03-01T13:40:07;101171.53;;;7.41;46.79
74268;BME280;62638;51.362;12.472;2023-03-01T13:42:52;101171.44;;;7.15;46.62
74268;BME280;62638;51.362;12.472;2023-03-01T13:45:21;101174.78;;;7.05;47.99
74268;BME280;62638;51.362;12.472;2023-03-01T13:47:52;101168.09;;;7.39;48.73
74268;BME280;62638;51.362;12.472;2023-03-01T13:50:24;101162.91;;;7.89;48.17
74268;BME280;62638;51.362;12.472;2023-03-01T13:52:52;101161.47;;;7.32;46.73
74268;BME280;62638;51.362;12.472;2023-03-01T13:55:38;101165.25;;;7.15;47.60
74268;BME280;62638;51.362;12.472;2023-03-01T13:58:48;101169.63;;;7.55;47.20